Time;durP1;ratioP1;P1;durP2;ratioP2;P2;SDS_P1;SDS_P2;PMS_P1;PMS_P2;Temp;Humidity;BMP_temperature;BMP_pressure;BME280_temperature;BME280_humidity;BME280_pressure;Samples;Min_cycle;Max_cycle;Signal;HPM_P1;HPM_P2
2023/10/04 00:01:51;;;;;;;;;17.50;12.50;;;;;25.70;33.08;101636.83;116073;1182;91269;-61
2023/10/04 00:04:21;;;;;;;;;14.00;12.00;;;;;25.70;33.22;101633.91;115844;1187;94510;-61
2023/10/04 00:06:49;;;;;;;;;13.00;13.00;;;;;25.69;33.21;101633.30;115861;1183;92562;-60
2023/10/04 00:09:19;;;;;;;;;15.00;14.00;;;;;25.69;33.12;101631.19;115893;1195;73248;-61
2023/10/04 00:11:50;;;;;;;;;15.00;14.00;;;;;25.69;33.14;101624.23;115872;1183;90908;-60
2023/10/04 00:14:21;;;;;;;;;16.50;14.50;;;;;25.68;33.22;101627.23;115764;1187;94210;-60
2023/10/04 00:16:49;;;;;;;;;11.00;11.00;;;;;25.67;33.21;101626.48;115937;1185;90129;-60
2023/10/04 00:19:17;;;;;;;;;17.00;15.00;;;;;25.66;33.15;101622.98;115937;1195;74415;-61
2023/10/04 00:21:48;;;;;;;;;14.00;14.00;;;;;25.65;33.23;101622.98;116006;1184;91167;-61
2023/10/04 00:24:16;;;;;;;;;13.00;13.00;;;;;25.66;33.18;101622.36;116121;1182;95683;-61
2023/10/04 00:26:47;;;;;;;;;15.00;13.00;;;;;25.66;33.24;101621.64;116112;1182;91591;-61
2023/10/04 00:29:17;;;;;;;;;15.00;14.00;;;;;25.65;33.11;101618.81;115888;1185;73401;-60
2023/10/04 00:31:47;;;;;;;;;11.50;11.50;;;;;25.65;33.13;101620.46;116125;1183;90655;-61
2023/10/04 00:34:15;;;;;;;;;11.50;11.50;;;;;25.64;33.17;101615.45;116196;1186;94065;-60
2023/10/04 00:36:46;;;;;;;;;14.00;14.00;;;;;25.64;33.25;101621.81;116164;1182;91627;-61
2023/10/04 00:39:18;;;;;;;;;14.00;12.50;;;;;25.64;33.19;101621.05;116181;1181;74448;-60
2023/10/04 00:41:53;;;;;;;;;14.00;12.00;;;;;25.64;33.19;101620.05;116099;1184;90645;-61
2023/10/04 00:44:26;;;;;;;;;12.50;11.50;;;;;25.64;33.31;101622.19;116116;1184;94383;-61
2023/10/04 00:46:55;;;;;;;;;13.00;13.00;;;;;25.64;33.14;101616.38;116178;1189;91720;-60
2023/10/04 00:49:23;;;;;;;;;12.00;12.00;;;;;25.64;33.21;101615.66;115812;1190;73296;-61
2023/10/04 00:51:52;;;;;;;;;18.00;13.00;;;;;25.63;33.16;101609.22;115834;1186;90963;-60
2023/10/04 00:54:20;;;;;;;;;12.00;12.00;;;;;25.62;33.22;101607.20;115795;1187;95029;-60
2023/10/04 00:56:51;;;;;;;;;14.00;14.00;;;;;25.62;33.31;101604.38;115811;1187;92552;-60
2023/10/04 00:59:20;;;;;;;;;16.00;12.00;;;;;25.62;33.31;101603.91;115885;1194;73965;-61
2023/10/04 01:01:48;;;;;;;;;15.00;12.00;;;;;25.62;33.26;101601.89;115891;1196;91276;-61
2023/10/04 01:04:16;;;;;;;;;18.00;13.00;;;;;25.61;33.26;101597.42;115851;1186;94678;-60
2023/10/04 01:06:45;;;;;;;;;16.00;14.00;;;;;25.60;33.29;101599.41;115698;1185;92046;-60
2023/10/04 01:09:14;;;;;;;;;12.50;12.50;;;;;25.61;33.22;101599.71;115695;1184;74791;-60
2023/10/04 01:11:46;;;;;;;;;14.00;13.50;;;;;25.60;33.33;101601.06;115363;1199;90461;-59
2023/10/04 01:14:32;;;;;;;;;14.00;14.00;;;;;25.60;33.17;101596.09;115894;1195;94907;-60
2023/10/04 01:17:10;;;;;;;;;14.00;13.00;;;;;25.63;33.31;101600.20;116127;1184;91696;-61
2023/10/04 01:19:38;;;;;;;;;12.00;12.00;;;;;25.65;33.26;101593.95;116073;1185;73258;-60
2023/10/04 01:22:06;;;;;;;;;11.00;11.00;;;;;25.65;33.13;101594.61;115899;1184;91169;-59
2023/10/04 01:24:34;;;;;;;;;13.50;12.50;;;;;25.63;33.26;101592.58;115761;1186;94966;-59
2023/10/04 01:27:03;;;;;;;;;11.00;10.00;;;;;25.61;33.11;101590.14;115819;1191;92725;-59
2023/10/04 01:29:31;;;;;;;;;13.00;11.00;;;;;25.59;33.21;101589.02;115807;1186;73165;-59
2023/10/04 01:32:01;;;;;;;;;11.50;11.50;;;;;25.58;33.18;101590.09;115888;1186;90973;-61
2023/10/04 01:34:29;;;;;;;;;13.00;13.00;;;;;25.57;33.42;101588.86;115816;1187;95855;-60
2023/10/04 01:37:00;;;;;;;;;12.00;12.00;;;;;25.58;33.26;101586.58;115856;1196;92712;-60
2023/10/04 01:39:30;;;;;;;;;15.00;13.00;;;;;25.58;33.37;101586.61;115555;1198;74112;-59
2023/10/04 01:41:59;;;;;;;;;12.00;11.00;;;;;25.57;33.24;101592.14;115697;1198;89505;-59
2023/10/04 01:44:27;;;;;;;;;11.50;11.50;;;;;25.57;33.36;101591.10;115602;1187;94538;-60
2023/10/04 01:46:59;;;;;;;;;15.50;14.00;;;;;25.58;33.30;101589.20;115650;1198;92407;-60
2023/10/04 01:49:27;;;;;;;;;15.00;15.00;;;;;25.57;33.36;101585.02;115717;1187;72811;-60
2023/10/04 01:51:57;;;;;;;;;16.00;13.00;;;;;25.57;33.40;101580.39;115775;1185;91386;-59
2023/10/04 01:54:29;;;;;;;;;11.50;10.50;;;;;25.57;33.43;101577.61;116198;1183;94904;-60
2023/10/04 01:56:59;;;;;;;;;15.50;15.50;;;;;25.56;33.36;101575.42;116122;1193;92777;-60
2023/10/04 01:59:31;;;;;;;;;16.00;13.00;;;;;25.55;33.36;101569.70;116231;1180;74508;-60
2023/10/04 02:01:59;;;;;;;;;13.00;13.00;;;;;25.54;33.32;101565.40;116227;1182;90487;-60
2023/10/04 02:04:30;;;;;;;;;12.00;12.00;;;;;25.54;33.42;101560.85;116213;1182;94791;-61
2023/10/04 02:07:01;;;;;;;;;13.00;10.50;;;;;25.54;33.39;101558.91;116526;1180;92318;-66
2023/10/04 02:09:29;;;;;;;;;15.00;13.00;;;;;25.54;33.37;101558.62;116388;1191;73961;-60
2023/10/04 02:12:01;;;;;;;;;12.50;12.50;;;;;25.57;33.35;101560.03;116204;1193;91216;-60
2023/10/04 02:14:33;;;;;;;;;12.00;12.00;;;;;25.58;33.43;101561.42;116274;1182;94946;-61
2023/10/04 02:17:05;;;;;;;;;14.00;14.00;;;;;25.56;33.40;101556.96;116540;1180;91732;-63
2023/10/04 02:19:36;;;;;;;;;18.00;14.50;;;;;25.55;33.31;101559.20;116256;1181;73719;-60
2023/10/04 02:22:15;;;;;;;;;16.00;12.00;;;;;25.57;33.21;101563.40;116412;1180;90504;-60
2023/10/04 02:24:47;;;;;;;;;16.00;13.00;;;;;25.58;33.35;101560.27;116273;1180;94486;-61
2023/10/04 02:27:17;;;;;;;;;13.00;13.00;;;;;25.58;33.31;101558.77;116224;1187;91823;-61
2023/10/04 02:29:49;;;;;;;;;14.00;12.00;;;;;25.57;33.30;101556.40;116294;1193;73346;-60
2023/10/04 02:32:17;;;;;;;;;17.00;14.00;;;;;25.56;33.25;101557.68;116227;1182;91363;-61
2023/10/04 02:34:46;;;;;;;;;16.50;13.50;;;;;25.55;33.30;101559.41;116018;1183;95234;-62
2023/10/04 02:37:19;;;;;;;;;14.00;12.00;;;;;25.57;33.32;101556.41;116158;1184;92175;-62
2023/10/04 02:39:47;;;;;;;;;13.00;13.00;;;;;25.56;33.33;101553.20;116065;1188;73531;-59
2023/10/04 02:42:21;;;;;;;;;14.00;14.00;;;;;25.54;33.34;101552.05;116112;1183;91230;-64
2023/10/04 02:44:49;;;;;;;;;15.50;14.00;;;;;25.54;33.30;101552.20;116173;1183;95007;-61
2023/10/04 02:47:20;;;;;;;;;15.00;12.00;;;;;25.56;33.34;101554.94;115900;1184;92378;-60
2023/10/04 02:49:49;;;;;;;;;14.00;13.00;;;;;25.54;33.39;101552.04;115755;1185;74428;-61
2023/10/04 02:52:20;;;;;;;;;12.00;11.00;;;;;25.53;33.38;101553.02;115826;1185;91119;-61
2023/10/04 02:54:48;;;;;;;;;18.00;13.00;;;;;25.52;33.39;101548.94;115949;1195;94694;-61
2023/10/04 02:57:18;;;;;;;;;14.00;14.00;;;;;25.51;33.43;101552.18;116086;1195;92022;-61
2023/10/04 02:59:46;;;;;;;;;12.50;12.50;;;;;25.49;33.35;101547.81;116016;1184;73781;-61
2023/10/04 03:02:18;;;;;;;;;17.50;16.50;;;;;25.49;33.56;101546.77;116103;1195;91815;-61
2023/10/04 03:04:51;;;;;;;;;11.00;11.00;;;;;25.48;33.51;101548.16;115995;1184;94898;-60
2023/10/04 03:07:20;;;;;;;;;14.50;13.00;;;;;25.49;33.50;101548.79;116122;1181;90955;-68
2023/10/04 03:09:50;;;;;;;;;14.00;13.00;;;;;25.48;33.33;101545.64;115906;1189;73396;-66
2023/10/04 03:12:24;;;;;;;;;13.00;11.00;;;;;25.47;33.51;101544.67;116010;1184;91104;-66
2023/10/04 03:14:52;;;;;;;;;11.00;11.00;;;;;25.47;33.44;101547.15;115942;1184;94498;-66
2023/10/04 03:17:22;;;;;;;;;12.00;11.50;;;;;25.48;33.52;101540.73;116151;1184;92100;-67
2023/10/04 03:19:51;;;;;;;;;13.00;13.00;;;;;25.46;33.40;101542.98;116171;1186;73823;-67
2023/10/04 03:22:23;;;;;;;;;11.00;11.00;;;;;25.44;33.55;101543.21;116150;1182;91479;-66
2023/10/04 03:24:51;;;;;;;;;16.50;15.00;;;;;25.45;33.64;101540.38;116100;1183;94430;-60
2023/10/04 03:27:24;;;;;;;;;14.00;13.00;;;;;25.44;33.38;101543.30;115974;1194;92108;-65
2023/10/04 03:29:57;;;;;;;;;14.00;12.50;;;;;25.44;33.57;101539.92;116263;1180;72251;-67
2023/10/04 03:32:28;;;;;;;;;13.00;11.50;;;;;25.44;33.51;101535.91;116224;1194;91094;-61
2023/10/04 03:35:03;;;;;;;;;14.50;14.50;;;;;25.45;33.56;101535.03;116171;1194;94145;-67
2023/10/04 03:37:38;;;;;;;;;13.50;13.50;;;;;25.44;33.61;101534.75;116210;1191;90916;-66
2023/10/04 03:40:14;;;;;;;;;16.50;13.00;;;;;25.43;33.66;101531.04;116194;1189;73958;-66
2023/10/04 03:42:43;;;;;;;;;14.50;11.00;;;;;25.44;33.46;101527.71;116105;1184;90107;-67
2023/10/04 03:45:17;;;;;;;;;12.50;12.00;;;;;25.44;33.55;101526.23;116157;1181;94855;-68
2023/10/04 03:47:50;;;;;;;;;15.50;12.00;;;;;25.43;33.54;101524.71;116157;1194;92027;-67
2023/10/04 03:50:19;;;;;;;;;16.50;15.00;;;;;25.43;33.59;101526.23;116198;1187;73395;-64
2023/10/04 03:52:48;;;;;;;;;13.50;11.00;;;;;25.43;33.60;101520.23;116154;1182;90158;-64
2023/10/04 03:55:17;;;;;;;;;14.00;13.50;;;;;25.40;33.49;101518.63;116086;1185;94681;-65
2023/10/04 03:57:45;;;;;;;;;13.00;12.50;;;;;25.39;33.59;101522.21;116197;1194;92473;-66
2023/10/04 04:00:17;;;;;;;;;14.00;11.50;;;;;25.40;33.70;101522.51;116201;1184;73476;-65
2023/10/04 04:02:48;;;;;;;;;15.00;13.00;;;;;25.41;33.60;101520.10;116211;1183;90732;-61
2023/10/04 04:05:22;;;;;;;;;12.00;10.50;;;;;25.44;33.61;101518.69;116021;1190;94405;-61
2023/10/04 04:07:52;;;;;;;;;13.00;12.00;;;;;25.49;33.54;101516.52;116089;1183;92000;-61
2023/10/04 04:10:21;;;;;;;;;16.00;13.00;;;;;25.51;33.52;101511.48;116387;1184;73265;-67
2023/10/04 04:12:50;;;;;;;;;14.00;13.00;;;;;25.57;33.43;101509.96;116192;1182;90412;-64
2023/10/04 04:15:18;;;;;;;;;11.00;11.00;;;;;25.58;33.43;101508.41;116190;1184;95241;-66
2023/10/04 04:17:47;;;;;;;;;13.50;12.00;;;;;25.55;33.47;101514.36;116124;1184;91723;-67
2023/10/04 04:20:18;;;;;;;;;15.00;15.00;;;;;25.51;33.47;101511.82;115823;1189;73570;-68
2023/10/04 04:22:53;;;;;;;;;15.00;13.00;;;;;25.49;33.71;101510.61;115719;1186;90962;-67
2023/10/04 04:25:23;;;;;;;;;11.00;10.00;;;;;25.47;33.61;101507.09;115610;1187;93967;-61
2023/10/04 04:27:52;;;;;;;;;19.00;14.00;;;;;25.45;33.57;101506.80;115803;1198;92406;-62
2023/10/04 04:30:23;;;;;;;;;12.00;11.50;;;;;25.44;33.52;101510.13;115529;1189;73006;-61
2023/10/04 04:32:52;;;;;;;;;14.00;12.00;;;;;25.43;33.53;101504.83;115557;1201;89783;-65
2023/10/04 04:36:18;;;;;;;;;14.50;12.00;;;;;25.42;33.63;101506.65;115449;1201;95305;-61
2023/10/04 04:38:22;;;;;;;;;13.50;11.50;;;;;25.46;33.58;101509.41;115474;1190;92219;-61
2023/10/04 04:40:56;;;;;;;;;14.50;11.00;;;;;25.48;33.57;101509.83;115580;1191;74229;-67
2023/10/04 04:43:36;;;;;;;;;11.00;11.00;;;;;25.47;33.80;101512.18;115691;1187;90600;-60
2023/10/04 04:46:09;;;;;;;;;20.00;16.00;;;;;25.46;33.50;101510.79;115866;1186;95316;-66
2023/10/04 04:48:38;;;;;;;;;13.00;13.00;;;;;25.45;33.68;101517.51;115997;1180;92003;-67
2023/10/04 04:51:12;;;;;;;;;13.50;11.50;;;;;25.46;33.70;101516.69;116083;1195;72732;-67
2023/10/04 04:53:42;;;;;;;;;14.00;12.00;;;;;25.44;33.67;101522.66;115929;1195;90671;-67
2023/10/04 04:56:15;;;;;;;;;12.00;11.00;;;;;25.42;33.76;101525.61;115823;1187;95425;-64
2023/10/04 04:58:47;;;;;;;;;14.00;13.00;;;;;25.41;33.75;101527.69;115721;1187;92360;-62
2023/10/04 05:01:16;;;;;;;;;13.00;11.50;;;;;25.40;33.81;101529.80;116104;1196;73310;-63
2023/10/04 05:03:50;;;;;;;;;16.50;15.00;;;;;25.46;33.75;101531.86;116006;1193;90722;-66
2023/10/04 05:06:22;;;;;;;;;16.50;15.00;;;;;25.55;33.70;101532.48;115973;1194;94771;-60
2023/10/04 05:08:56;;;;;;;;;14.00;13.00;;;;;25.60;33.64;101534.17;115883;1196;92297;-62
2023/10/04 05:11:25;;;;;;;;;14.00;14.00;;;;;25.64;33.57;101533.18;116167;1183;74356;-60
2023/10/04 05:13:57;;;;;;;;;15.50;12.50;;;;;25.61;33.48;101534.41;115995;1189;90605;-67
2023/10/04 05:16:25;;;;;;;;;12.00;10.00;;;;;25.58;33.59;101533.77;116518;1180;94806;-60
2023/10/04 05:18:53;;;;;;;;;13.00;11.00;;;;;25.54;33.58;101534.89;116160;1193;91806;-61
2023/10/04 05:21:22;;;;;;;;;12.50;12.50;;;;;25.52;33.73;101539.08;116442;1180;73477;-62
2023/10/04 05:23:55;;;;;;;;;13.00;11.50;;;;;25.49;33.64;101538.67;116509;1180;90822;-62
2023/10/04 05:26:24;;;;;;;;;13.50;13.00;;;;;25.49;33.79;101541.71;116466;1185;94528;-61
2023/10/04 05:28:53;;;;;;;;;14.50;12.00;;;;;25.48;33.73;101541.21;116253;1181;91935;-61
2023/10/04 05:31:22;;;;;;;;;16.00;13.00;;;;;25.49;33.72;101541.11;116211;1184;73943;-61
2023/10/04 05:33:53;;;;;;;;;16.00;14.00;;;;;25.47;33.87;101542.95;116525;1180;89959;-61
2023/10/04 05:36:22;;;;;;;;;19.00;14.00;;;;;25.45;33.95;101546.52;116526;1180;94822;-63
2023/10/04 05:38:50;;;;;;;;;15.00;14.00;;;;;25.42;33.66;101543.52;116240;1193;92114;-62
2023/10/04 05:41:19;;;;;;;;;16.00;16.00;;;;;25.38;33.43;101540.02;116178;1183;73564;-63
2023/10/04 05:43:47;;;;;;;;;15.00;15.00;;;;;25.33;33.27;101544.92;115951;1190;90682;-62
2023/10/04 05:46:15;;;;;;;;;17.00;16.00;;;;;25.24;33.35;101542.30;115727;1194;94431;-64
2023/10/04 05:48:43;;;;;;;;;16.00;14.00;;;;;25.17;33.40;101542.77;115624;1186;91811;-67
2023/10/04 05:51:12;;;;;;;;;31.00;25.00;;;;;25.14;33.39;101543.58;115780;1199;73365;-61
2023/10/04 05:53:40;;;;;;;;;33.00;26.00;;;;;25.12;33.33;101547.17;115651;1189;90705;-65
2023/10/04 05:56:09;;;;;;;;;21.00;20.00;;;;;25.09;33.32;101548.79;115554;1191;94615;-64
2023/10/04 05:58:38;;;;;;;;;29.00;27.00;;;;;25.06;33.40;101548.77;115700;1190;92509;-66
2023/10/04 06:01:06;;;;;;;;;31.50;25.00;;;;;25.02;33.69;101549.38;115560;1200;73595;-63
2023/10/04 06:03:35;;;;;;;;;25.50;22.50;;;;;25.06;33.56;101551.02;115601;1188;91069;-64
2023/10/04 06:06:03;;;;;;;;;26.00;22.00;;;;;25.04;33.60;101555.14;115600;1191;95476;-65
2023/10/04 06:08:33;;;;;;;;;23.00;21.00;;;;;25.03;33.58;101553.70;116020;1189;92060;-64
2023/10/04 06:11:02;;;;;;;;;23.00;21.00;;;;;25.12;33.46;101556.47;116143;1187;72896;-62
2023/10/04 06:13:30;;;;;;;;;19.00;18.00;;;;;25.16;33.48;101552.70;115809;1187;91257;-63
2023/10/04 06:15:59;;;;;;;;;20.00;20.00;;;;;25.16;33.70;101557.55;116172;1184;94780;-63
2023/10/04 06:18:30;;;;;;;;;18.00;16.00;;;;;25.17;33.77;101558.05;115844;1194;91742;-63
2023/10/04 06:21:01;;;;;;;;;27.00;24.00;;;;;25.17;33.70;101553.00;116041;1182;73481;-64
2023/10/04 06:23:32;;;;;;;;;29.50;26.00;;;;;25.16;33.76;101554.60;116290;1193;91119;-64
2023/10/04 06:26:00;;;;;;;;;20.00;16.50;;;;;25.12;33.82;101555.86;116179;1193;95155;-63
2023/10/04 06:28:28;;;;;;;;;18.00;15.50;;;;;25.09;33.75;101554.90;116253;1179;92404;-62
2023/10/04 06:30:57;;;;;;;;;17.50;15.50;;;;;25.06;33.73;101556.91;116319;1184;73545;-62
2023/10/04 06:33:25;;;;;;;;;27.00;21.00;;;;;25.03;33.84;101556.73;116263;1192;89900;-63
2023/10/04 06:35:54;;;;;;;;;30.50;26.00;;;;;24.98;33.89;101560.88;116246;1181;94933;-63
2023/10/04 06:38:22;;;;;;;;;31.50;24.50;;;;;24.91;34.04;101562.03;116382;1188;91205;-63
2023/10/04 06:40:50;;;;;;;;;24.00;20.00;;;;;24.92;33.96;101561.74;116353;1182;73486;-63
2023/10/04 06:43:19;;;;;;;;;32.00;29.00;;;;;24.87;34.01;101566.31;116313;1193;90235;-63
2023/10/04 06:45:47;;;;;;;;;33.50;30.50;;;;;24.80;34.13;101567.25;116599;1189;94628;-62
2023/10/04 06:48:16;;;;;;;;;34.50;30.00;;;;;24.80;34.00;101571.52;116296;1180;91703;-67
2023/10/04 06:50:49;;;;;;;;;23.00;20.00;;;;;24.71;34.22;101567.84;116341;1193;73038;-63
2023/10/04 06:53:18;;;;;;;;;29.50;25.50;;;;;24.75;34.10;101567.20;116224;1183;90572;-66
2023/10/04 06:55:48;;;;;;;;;25.50;21.50;;;;;24.75;33.99;101570.68;116527;1180;95317;-67
2023/10/04 06:58:16;;;;;;;;;25.00;20.50;;;;;24.75;33.87;101572.16;116316;1193;92060;-65
2023/10/04 07:00:45;;;;;;;;;19.50;17.00;;;;;24.77;33.86;101572.65;116343;1180;73001;-66
2023/10/04 07:03:14;;;;;;;;;23.50;20.50;;;;;24.80;33.69;101572.02;116207;1193;90321;-65
2023/10/04 07:05:44;;;;;;;;;22.00;16.00;;;;;24.79;33.70;101571.30;116298;1180;93999;-65
2023/10/04 07:08:16;;;;;;;;;19.50;19.00;;;;;24.81;33.74;101570.26;116161;1184;91438;-66
2023/10/04 07:10:45;;;;;;;;;22.00;20.50;;;;;24.80;33.76;101568.31;116182;1195;73758;-66
2023/10/04 07:13:14;;;;;;;;;22.00;20.00;;;;;24.78;33.79;101568.58;116227;1184;90681;-67
2023/10/04 07:15:44;;;;;;;;;26.50;22.00;;;;;24.86;33.68;101570.48;116193;1183;94002;-67
2023/10/04 07:18:13;;;;;;;;;21.50;21.00;;;;;24.90;33.44;101575.45;116142;1182;92718;-65
2023/10/04 07:20:42;;;;;;;;;19.00;18.00;;;;;24.88;33.73;101577.20;116176;1190;72697;-65
2023/10/04 07:23:11;;;;;;;;;22.00;18.00;;;;;24.90;33.65;101577.58;116183;1182;88851;-67
2023/10/04 07:25:50;;;;;;;;;18.50;18.50;;;;;24.95;33.38;101585.86;115848;1191;94766;-65
2023/10/04 07:28:18;;;;;;;;;24.00;20.50;;;;;24.89;33.40;101593.30;115939;1183;92373;-66
2023/10/04 07:30:47;;;;;;;;;24.00;22.00;;;;;24.88;33.38;101593.59;115934;1185;73042;-65
2023/10/04 07:33:15;;;;;;;;;24.00;23.00;;;;;24.89;33.23;101595.78;115848;1185;90980;-67
2023/10/04 07:35:43;;;;;;;;;22.00;21.00;;;;;24.94;33.30;101594.20;115916;1186;95283;-66
2023/10/04 07:38:12;;;;;;;;;22.50;19.50;;;;;24.94;33.17;101596.89;116001;1195;91738;-66
2023/10/04 07:40:40;;;;;;;;;26.00;18.00;;;;;24.94;33.13;101598.92;115974;1184;72999;-65
2023/10/04 07:43:09;;;;;;;;;24.50;22.50;;;;;24.91;33.13;101602.58;115934;1195;91083;-65
2023/10/04 07:45:38;;;;;;;;;23.50;21.50;;;;;24.87;33.18;101602.93;115872;1195;94594;-66
2023/10/04 07:48:09;;;;;;;;;25.00;25.00;;;;;24.91;32.89;101599.27;116061;1183;91631;-65
2023/10/04 07:50:38;;;;;;;;;20.00;19.00;;;;;24.95;32.98;101599.67;116367;1182;72691;-66
2023/10/04 07:53:06;;;;;;;;;19.00;19.00;;;;;25.02;32.88;101597.59;116147;1180;89072;-69
2023/10/04 07:55:36;;;;;;;;;27.00;21.50;;;;;25.05;33.01;101596.52;116202;1182;94773;-67
2023/10/04 07:58:06;;;;;;;;;19.00;19.00;;;;;25.02;33.01;101591.11;116170;1182;92012;-66
2023/10/04 08:00:36;;;;;;;;;23.00;20.00;;;;;25.09;32.75;101585.45;116218;1187;73194;-65
2023/10/04 08:03:06;;;;;;;;;22.50;22.00;;;;;25.13;32.69;101580.90;116187;1184;90436;-66
2023/10/04 08:05:39;;;;;;;;;19.50;19.00;;;;;25.15;32.79;101582.58;116256;1186;94645;-65
2023/10/04 08:08:07;;;;;;;;;21.00;19.00;;;;;25.23;32.59;101583.55;116173;1194;91753;-66
2023/10/04 08:10:37;;;;;;;;;19.00;19.00;;;;;25.25;32.56;101585.31;116158;1193;74065;-66
2023/10/04 08:13:05;;;;;;;;;24.50;22.50;;;;;25.25;32.50;101585.98;116174;1187;89707;-66
2023/10/04 08:15:36;;;;;;;;;24.00;20.00;;;;;25.28;32.40;101585.72;116157;1186;94484;-66
2023/10/04 08:18:05;;;;;;;;;23.50;22.00;;;;;25.28;32.20;101583.45;116410;1191;91418;-67
2023/10/04 08:20:36;;;;;;;;;21.00;19.50;;;;;25.35;32.18;101579.28;116247;1193;72949;-67
2023/10/04 08:23:05;;;;;;;;;22.50;19.00;;;;;25.41;32.17;101577.65;116290;1181;90769;-65
2023/10/04 08:25:35;;;;;;;;;20.00;19.00;;;;;25.42;32.15;101575.46;116250;1190;95353;-65
2023/10/04 08:28:06;;;;;;;;;32.00;29.50;;;;;25.42;32.21;101572.34;116514;1191;91711;-66
2023/10/04 08:30:38;;;;;;;;;25.00;18.50;;;;;25.42;32.02;101568.71;116235;1181;72941;-66
2023/10/04 08:33:08;;;;;;;;;22.00;21.00;;;;;25.43;31.98;101568.63;116254;1182;90670;-66
2023/10/04 08:35:36;;;;;;;;;22.00;21.00;;;;;25.55;31.97;101557.47;116270;1192;94159;-68
2023/10/04 08:38:06;;;;;;;;;20.00;18.50;;;;;25.60;31.81;101563.21;116225;1182;91949;-66
2023/10/04 08:40:38;;;;;;;;;24.00;20.00;;;;;25.58;31.83;101563.14;116341;1180;72671;-65
2023/10/04 08:43:11;;;;;;;;;23.00;21.50;;;;;25.58;31.85;101560.23;116231;1184;90667;-66
2023/10/04 08:45:42;;;;;;;;;22.50;20.00;;;;;25.63;31.71;101562.61;115755;1196;94540;-66
2023/10/04 08:48:12;;;;;;;;;24.50;20.00;;;;;25.66;31.65;101557.23;116058;1184;91912;-68
2023/10/04 08:50:46;;;;;;;;;17.50;17.50;;;;;25.72;31.50;101551.80;115783;1187;73823;-65
2023/10/04 08:53:18;;;;;;;;;29.00;25.00;;;;;25.74;31.53;101554.49;115924;1194;90826;-66
2023/10/04 08:55:51;;;;;;;;;21.00;19.00;;;;;25.78;31.47;101554.52;116178;1196;94692;-68
2023/10/04 08:58:20;;;;;;;;;20.50;20.50;;;;;25.81;31.44;101550.50;115866;1184;91522;-70
2023/10/04 09:00:51;;;;;;;;;25.50;24.00;;;;;25.89;31.35;101552.84;115897;1187;74308;-69
2023/10/04 09:03:23;;;;;;;;;22.50;18.50;;;;;25.90;31.39;101550.17;115967;1188;89896;-70
2023/10/04 09:05:54;;;;;;;;;19.50;19.50;;;;;25.91;31.08;101551.30;116560;1193;94664;-69
2023/10/04 09:08:25;;;;;;;;;18.50;18.50;;;;;25.96;31.06;101553.70;116302;1180;92537;-70
2023/10/04 09:10:53;;;;;;;;;19.00;19.00;;;;;26.04;31.05;101545.76;116233;1193;73142;-69
2023/10/04 09:13:22;;;;;;;;;22.00;21.50;;;;;26.08;31.05;101549.52;116273;1180;90980;-67
2023/10/04 09:15:51;;;;;;;;;27.00;22.00;;;;;26.10;30.78;101540.27;116388;1180;94668;-66
2023/10/04 09:18:26;;;;;;;;;26.50;25.50;;;;;26.12;30.92;101539.59;116261;1181;92064;-75
2023/10/04 09:20:55;;;;;;;;;21.00;18.50;;;;;26.08;31.07;101540.83;116286;1181;73837;-70
2023/10/04 09:23:23;;;;;;;;;18.50;18.50;;;;;26.13;30.73;101543.48;116279;1180;91112;-68
2023/10/04 09:25:55;;;;;;;;;20.00;19.00;;;;;26.20;30.82;101543.42;116244;1180;94643;-70
2023/10/04 09:28:40;;;;;;;;;22.00;19.50;;;;;26.21;30.77;101539.23;116351;1181;92086;-67
2023/10/04 09:31:26;;;;;;;;;20.50;20.50;;;;;26.28;30.45;101538.16;116350;1180;72971;-65
2023/10/04 09:33:57;;;;;;;;;22.00;20.00;;;;;26.36;30.27;101538.21;115839;1187;89684;-68
2023/10/04 09:36:32;;;;;;;;;21.50;20.00;;;;;26.41;30.35;101534.67;115770;1187;94623;-70
2023/10/04 09:39:09;;;;;;;;;24.00;22.00;;;;;26.44;30.08;101538.16;115836;1187;92053;-68
2023/10/04 09:41:43;;;;;;;;;;;;;;;26.41;30.17;101530.96;115853;1187;74083;-68
2023/10/04 09:44:25;;;;;;;;;23.00;21.50;;;;;26.47;30.27;101529.56;115774;1187;91151;-67
2023/10/04 09:47:01;;;;;;;;;21.00;19.00;;;;;26.51;30.32;101528.76;115507;1201;94415;-68
2023/10/04 09:49:35;;;;;;;;;24.00;22.00;;;;;26.46;30.30;101526.79;115539;1189;91806;-67
2023/10/04 09:52:07;;;;;;;;;26.00;21.00;;;;;26.46;30.33;101533.20;115613;1198;72976;-66
2023/10/04 09:54:35;;;;;;;;;23.00;20.00;;;;;26.54;30.38;101525.77;115842;1185;90357;-66
2023/10/04 09:57:10;;;;;;;;;22.00;19.00;;;;;26.57;30.30;101526.96;115541;1190;95002;-67
2023/10/04 09:59:39;;;;;;;;;24.50;21.00;;;;;26.60;30.34;101523.26;115613;1192;91690;-67
2023/10/04 10:02:11;;;;;;;;;21.00;20.00;;;;;26.55;30.31;101526.65;115614;1193;73559;-67
2023/10/04 10:04:44;;;;;;;;;20.00;20.00;;;;;26.53;30.19;101525.41;115636;1189;90848;-67
2023/10/04 10:07:16;;;;;;;;;19.00;17.00;;;;;26.57;30.13;101521.31;115780;1185;94735;-65
2023/10/04 10:10:04;;;;;;;;;21.00;19.00;;;;;26.63;30.12;101515.71;115806;1187;92657;-66
2023/10/04 10:12:43;;;;;;;;;23.50;23.50;;;;;26.63;30.25;101518.79;115794;1187;73471;-65
2023/10/04 10:15:13;;;;;;;;;20.00;20.00;;;;;26.56;30.14;101515.34;115936;1185;90471;-63
2023/10/04 10:17:43;;;;;;;;;21.50;19.50;;;;;26.61;30.22;101518.13;115924;1185;94530;-66
2023/10/04 10:20:15;;;;;;;;;25.00;21.00;;;;;26.63;30.12;101513.04;115917;1183;92255;-65
2023/10/04 10:23:05;;;;;;;;;22.00;21.00;;;;;26.57;30.21;101512.20;115973;1196;73373;-65
2023/10/04 10:25:33;;;;;;;;;21.00;21.00;;;;;26.61;30.20;101506.83;116141;1183;89668;-65
2023/10/04 10:28:03;;;;;;;;;19.00;18.00;;;;;26.65;30.18;101502.02;115943;1187;94337;-64
2023/10/04 10:30:31;;;;;;;;;18.50;18.50;;;;;26.71;30.00;101497.04;115865;1183;90679;-65
2023/10/04 10:33:00;;;;;;;;;23.00;21.00;;;;;26.68;30.04;101497.75;115919;1190;73982;-66
2023/10/04 10:35:52;;;;;;;;;21.00;19.00;;;;;26.66;30.18;101493.42;115922;1187;90789;-63
2023/10/04 10:38:30;;;;;;;;;19.00;19.00;;;;;26.70;30.01;101491.02;116095;1184;94117;-68
2023/10/04 10:40:58;;;;;;;;;24.00;18.50;;;;;26.65;30.29;101492.52;116110;1182;91792;-66
2023/10/04 10:43:27;;;;;;;;;19.00;19.00;;;;;26.65;29.93;101489.55;115898;1196;73888;-64
2023/10/04 10:45:56;;;;;;;;;20.00;19.50;;;;;26.64;30.21;101491.77;115925;1184;91258;-66
2023/10/04 10:48:33;;;;;;;;;22.00;19.00;;;;;26.66;30.25;101490.94;116065;1185;94824;-66
2023/10/04 10:51:02;;;;;;;;;20.50;18.00;;;;;26.65;30.13;101493.39;115910;1191;91566;-65
2023/10/04 10:53:30;;;;;;;;;19.00;17.00;;;;;26.69;30.27;101484.45;116189;1180;72183;-66
2023/10/04 10:55:59;;;;;;;;;20.50;20.50;;;;;26.71;30.21;101488.69;116387;1193;89963;-66
2023/10/04 10:58:27;;;;;;;;;17.50;15.00;;;;;26.70;30.16;101488.06;116313;1181;94782;-67
2023/10/04 11:00:56;;;;;;;;;21.00;19.00;;;;;26.71;30.43;101485.73;116237;1181;91521;-66
2023/10/04 11:03:25;;;;;;;;;20.00;18.00;;;;;26.73;30.21;101486.55;116127;1183;73118;-66
2023/10/04 11:05:57;;;;;;;;;17.00;16.50;;;;;26.73;30.18;101490.17;116190;1182;90640;-64
2023/10/04 11:08:28;;;;;;;;;19.00;19.00;;;;;26.74;30.33;101487.46;116090;1194;94552;-66
2023/10/04 11:10:57;;;;;;;;;18.00;16.00;;;;;26.76;30.42;101487.79;115792;1186;92137;-67
2023/10/04 11:13:26;;;;;;;;;19.00;18.00;;;;;26.77;30.40;101485.99;115764;1188;72869;-66
2023/10/04 11:15:55;;;;;;;;;17.50;17.00;;;;;26.77;30.10;101486.71;115743;1187;90428;-66
2023/10/04 11:18:28;;;;;;;;;19.00;15.50;;;;;26.76;30.12;101487.73;115733;1185;94595;-64